Time;durP1;ratioP1;P1;durP2;ratioP2;P2;SDS_P1;SDS_P2;PMS_P1;PMS_P2;Temp;Humidity;BMP_temperature;BMP_pressure;BME280_temperature;BME280_humidity;BME280_pressure;Samples;Min_cycle;Max_cycle;Signal;HPM_P1;HPM_P2
2023/10/07 00:01:07;;;;;;;6.00;4.97;;;;;;;13.90;100.00;101872.09;1258269;23;20259;-91
2023/10/07 00:01:39;;;;;;;9.18;4.75;;;;;;;13.84;100.00;101872.97;1257283;23;20322;-92
2023/10/07 00:02:13;;;;;;;11.05;4.43;;;;;;;13.84;100.00;101868.44;1257063;23;20330;-91
2023/10/07 00:02:45;;;;;;;11.68;5.10;;;;;;;13.78;100.00;101868.47;1260420;23;20273;-91
2023/10/07 00:03:20;;;;;;;11.02;4.88;;;;;;;13.76;100.00;101874.03;1266085;23;20322;-90
2023/10/07 00:03:58;;;;;;;13.75;5.53;;;;;;;13.73;100.00;101870.97;1250588;23;20267;-91
2023/10/07 00:04:31;;;;;;;10.82;4.65;;;;;;;13.73;100.00;101871.78;1263080;23;20459;-91
2023/10/07 00:05:04;;;;;;;16.73;5.20;;;;;;;13.80;100.00;101869.06;1261647;23;20631;-93
2023/10/07 00:05:37;;;;;;;22.38;6.78;;;;;;;13.90;100.00;101864.06;1256563;23;20015;-91
2023/10/07 00:06:10;;;;;;;10.55;5.72;;;;;;;13.90;100.00;101867.56;1247557;23;20612;-92
2023/10/07 00:06:45;;;;;;;16.38;5.43;;;;;;;13.90;100.00;101856.88;1253967;23;20315;-89
2023/10/07 00:07:17;;;;;;;10.63;5.63;;;;;;;13.88;100.00;101858.13;1254903;23;20038;-91
2023/10/07 00:07:48;;;;;;;10.75;4.75;;;;;;;13.93;100.00;101856.44;1247552;23;20030;-90
2023/10/07 00:08:20;;;;;;;12.23;5.47;;;;;;;13.91;100.00;101865.72;1241879;23;20601;-91
2023/10/07 00:08:52;;;;;;;12.27;5.25;;;;;;;13.97;100.00;101861.34;1242513;23;20321;-91
2023/10/07 00:09:24;;;;;;;6.90;4.75;;;;;;;13.96;100.00;101870.44;1249997;23;20022;-90
2023/10/07 00:09:57;;;;;;;12.02;5.25;;;;;;;13.97;100.00;101866.72;1259842;23;20413;-91
2023/10/07 00:10:35;;;;;;;15.77;5.43;;;;;;;13.97;100.00;101872.94;1256618;23;20262;-91
2023/10/07 00:11:11;;;;;;;11.25;5.63;;;;;;;13.93;100.00;101877.84;1248044;23;20330;-91
2023/10/07 00:11:46;;;;;;;10.30;4.70;;;;;;;13.95;100.00;101868.78;1260321;23;20255;-91
2023/10/07 00:12:19;;;;;;;9.10;4.43;;;;;;;13.92;100.00;101881.56;1255727;23;20279;-91
2023/10/07 00:12:52;;;;;;;10.90;5.00;;;;;;;13.89;100.00;101882.00;1254003;23;20259;-90
2023/10/07 00:13:23;;;;;;;7.82;4.57;;;;;;;13.86;100.00;101881.59;1250603;23;20724;-91
2023/10/07 00:13:55;;;;;;;10.88;4.88;;;;;;;13.83;100.00;101877.50;1253602;23;20581;-89
2023/10/07 00:14:30;;;;;;;10.00;4.63;;;;;;;13.85;100.00;101879.97;1254085;23;20326;-91
2023/10/07 00:15:04;;;;;;;23.85;5.32;;;;;;;13.86;100.00;101882.44;1252080;23;20255;-91
2023/10/07 00:15:37;;;;;;;8.80;4.85;;;;;;;13.85;100.00;101875.44;1257347;23;20269;-91
2023/10/07 00:16:17;;;;;;;9.45;4.70;;;;;;;13.84;100.00;101884.50;1262148;23;20265;-91
2023/10/07 00:16:50;;;;;;;14.20;4.93;;;;;;;13.86;100.00;101871.72;1261124;23;20278;-91
2023/10/07 00:17:22;;;;;;;10.23;5.80;;;;;;;13.89;100.00;101873.97;1263788;23;20023;-90
2023/10/07 00:17:56;;;;;;;12.90;4.72;;;;;;;13.89;100.00;101876.66;1257220;23;20259;-91
2023/10/07 00:18:28;;;;;;;14.25;5.38;;;;;;;13.89;100.00;101876.66;1252373;23;20819;-91
2023/10/07 00:18:59;;;;;;;7.43;5.10;;;;;;;13.91;100.00;101879.94;1252511;23;20570;-91
2023/10/07 00:19:33;;;;;;;13.43;5.13;;;;;;;13.92;100.00;101889.59;1258975;23;20255;-91
2023/10/07 00:20:05;;;;;;;18.20;4.78;;;;;;;13.92;100.00;101894.16;1264406;23;20250;-91
2023/10/07 00:20:44;;;;;;;11.32;4.50;;;;;;;13.92;100.00;101894.97;1249481;23;20276;-90
2023/10/07 00:21:22;;;;;;;6.60;4.47;;;;;;;13.92;100.00;101888.78;1250384;23;20263;-92
2023/10/07 00:21:59;;;;;;;12.43;4.80;;;;;;;13.97;100.00;101902.41;1242940;23;20276;-91
2023/10/07 00:22:40;;;;;;;8.45;5.05;;;;;;;13.95;100.00;101895.56;1244989;23;20256;-91
2023/10/07 00:23:15;;;;;;;9.40;4.40;;;;;;;14.01;100.00;101897.44;1252162;23;20585;-91
2023/10/07 00:23:52;;;;;;;10.90;5.00;;;;;;;14.03;100.00;101903.41;1248364;23;20267;-91
2023/10/07 00:24:25;;;;;;;13.68;5.80;;;;;;;14.04;100.00;101899.69;1256507;23;20298;-91
2023/10/07 00:24:58;;;;;;;9.05;5.25;;;;;;;14.04;100.00;101900.50;1255793;23;20302;-92
2023/10/07 00:25:30;;;;;;;10.20;5.22;;;;;;;14.05;100.00;101902.13;1255634;23;20278;-91
2023/10/07 00:26:07;;;;;;;7.78;4.40;;;;;;;14.06;100.00;101908.31;1255011;23;20277;-91
2023/10/07 00:26:39;;;;;;;9.77;5.22;;;;;;;14.02;100.00;101897.22;1259018;23;20332;-92
2023/10/07 00:27:26;;;;;;;12.07;5.38;;;;;;;14.05;100.00;101902.13;1249736;23;20267;-92
2023/10/07 00:27:58;;;;;;;7.07;4.18;;;;;;;14.02;100.00;101891.03;1255517;23;20279;-91
2023/10/07 00:29:02;;;;;;;12.98;5.35;;;;;;;14.12;100.00;101894.88;1256786;23;20716;-91
2023/10/07 00:29:51;;;;;;;12.38;5.55;;;;;;;14.12;100.00;101891.38;1255907;23;20771;-91
2023/10/07 00:30:27;;;;;;;18.33;5.30;;;;;;;14.08;100.00;101896.34;1255780;23;20732;-92
2023/10/07 00:31:02;;;;;;;7.80;4.85;;;;;;;14.11;100.00;101892.44;1261456;23;20405;-91
2023/10/07 00:31:34;;;;;;;12.18;5.43;;;;;;;14.04;100.00;101892.47;1247195;23;20274;-91
2023/10/07 00:32:06;;;;;;;10.35;7.32;;;;;;;14.02;100.00;101893.72;1262437;23;20269;-92
2023/10/07 00:32:38;;;;;;;17.23;7.20;;;;;;;14.08;100.00;101895.53;1265061;23;20320;-90
2023/10/07 00:33:10;;;;;;;9.45;5.38;;;;;;;14.06;100.00;101889.56;1269001;23;20265;-91
2023/10/07 00:34:02;;;;;;;11.45;5.68;;;;;;;14.09;100.00;101889.97;1256558;23;20354;-91
2023/10/07 00:34:38;;;;;;;12.32;6.65;;;;;;;14.14;100.00;101890.13;1255127;23;20027;-90
2023/10/07 00:35:11;;;;;;;15.20;6.15;;;;;;;14.10;100.00;101893.47;1255728;23;20266;-91
2023/10/07 00:35:43;;;;;;;8.55;5.15;;;;;;;14.09;100.00;101883.78;1255797;23;20402;-91
2023/10/07 00:36:22;;;;;;;8.38;5.13;;;;;;;14.08;100.00;101890.19;1253583;23;20274;-91
2023/10/07 00:36:58;;;;;;;12.80;4.85;;;;;;;14.03;100.00;101890.00;1259297;23;20266;-91
2023/10/07 00:37:33;;;;;;;11.70;4.55;;;;;;;14.05;100.00;101890.59;1259818;23;20274;-91
2023/10/07 00:38:13;;;;;;;12.05;5.25;;;;;;;14.06;100.00;101886.88;1263738;23;20258;-91
2023/10/07 00:38:46;;;;;;;11.50;6.88;;;;;;;14.07;100.00;101881.31;1255081;23;20274;-91
2023/10/07 00:39:20;;;;;;;8.77;5.25;;;;;;;14.15;100.00;101885.59;1262005;23;20267;-91
2023/10/07 00:40:00;;;;;;;9.75;5.30;;;;;;;14.15;100.00;101891.78;1261765;23;20644;-91
2023/10/07 00:40:40;;;;;;;12.32;5.25;;;;;;;14.13;100.00;101893.03;1259966;23;20251;-91
2023/10/07 00:41:15;;;;;;;13.25;4.97;;;;;;;14.12;100.00;101886.84;1243240;23;20310;-91
2023/10/07 00:41:51;;;;;;;10.45;4.75;;;;;;;14.10;100.00;101883.56;1250559;23;20339;-91
2023/10/07 00:42:23;;;;;;;11.07;5.18;;;;;;;14.07;100.00;101885.84;1249920;23;20701;-92
2023/10/07 00:42:55;;;;;;;16.88;5.65;;;;;;;14.11;100.00;101879.84;1256203;23;20266;-91
2023/10/07 00:43:30;;;;;;;10.02;6.18;;;;;;;14.10;100.00;101888.91;1256752;23;20271;-91
2023/10/07 00:44:16;;;;;;;11.90;6.18;;;;;;;14.13;100.00;101895.72;1248395;23;20602;-90
2023/10/07 00:44:52;;;;;;;12.73;4.97;;;;;;;14.10;100.00;101893.47;1253563;23;20271;-92
2023/10/07 00:45:27;;;;;;;9.60;5.35;;;;;;;14.09;100.00;101891.81;1263045;23;20262;-91
2023/10/07 00:46:10;;;;;;;10.43;5.45;;;;;;;14.12;100.00;101886.84;1256131;23;20335;-91
2023/10/07 00:46:44;;;;;;;14.93;4.78;;;;;;;14.09;100.00;101886.47;1255925;23;20255;-92
2023/10/07 00:47:19;;;;;;;12.30;6.18;;;;;;;14.13;100.00;101882.31;1255331;23;20305;-91
2023/10/07 00:47:52;;;;;;;16.45;5.55;;;;;;;14.09;100.00;101887.28;1258081;23;20955;-91
2023/10/07 00:48:38;;;;;;;8.70;5.82;;;;;;;14.12;100.00;101875.31;1258643;23;20275;-92
2023/10/07 00:49:14;;;;;;;13.05;4.95;;;;;;;14.08;100.00;101876.78;1248575;23;20268;-91
2023/10/07 00:50:22;;;;;;;9.15;5.05;;;;;;;14.19;100.00;101870.72;1248713;23;20347;-91
2023/10/07 00:50:55;;;;;;;9.23;5.63;;;;;;;14.17;100.00;101870.13;1251716;23;20266;-91
2023/10/07 00:51:42;;;;;;;11.80;4.97;;;;;;;14.15;100.00;101869.53;1261766;23;20595;-90
2023/10/07 00:52:28;;;;;;;7.75;5.10;;;;;;;14.19;100.00;101863.50;1255299;23;20262;-91
2023/10/07 00:53:05;;;;;;;8.65;4.60;;;;;;;14.16;100.00;101860.44;1249403;23;20267;-92
2023/10/07 00:53:46;;;;;;;10.57;5.45;;;;;;;14.19;100.00;101865.38;1251553;23;20287;-93
2023/10/07 00:54:38;;;;;;;9.85;4.78;;;;;;;14.21;100.00;101860.63;1249714;23;20268;-91
2023/10/07 00:55:17;;;;;;;8.60;5.68;;;;;;;14.26;100.00;101868.84;1255775;23;20479;-91
2023/10/07 00:55:52;;;;;;;8.13;5.65;;;;;;;14.27;100.00;101861.63;1262880;23;20265;-91
2023/10/07 00:56:25;;;;;;;16.77;6.80;;;;;;;14.25;100.00;101864.53;1269850;23;20260;-90
2023/10/07 00:57:23;;;;;;;11.32;5.22;;;;;;;14.27;100.00;101873.19;1263172;23;20254;-90
2023/10/07 00:58:13;;;;;;;13.13;5.10;;;;;;;14.34;100.00;101862.41;1260637;23;20353;-91
2023/10/07 00:58:46;;;;;;;12.93;5.45;;;;;;;14.34;100.00;101865.09;1252240;23;20011;-91
2023/10/07 00:59:19;;;;;;;11.40;6.28;;;;;;;14.30;100.00;101858.53;1255355;23;20027;-91
2023/10/07 00:59:51;;;;;;;8.50;5.55;;;;;;;14.37;100.00;101856.63;1261478;23;20604;-92
2023/10/07 01:00:57;;;;;;;15.30;7.50;;;;;;;14.34;100.00;101857.88;1256308;23;20386;-92
2023/10/07 01:01:36;;;;;;;9.13;5.13;;;;;;;14.33;100.00;101866.94;1259989;23;20247;-92
2023/10/07 01:02:14;;;;;;;10.70;6.63;;;;;;;14.33;100.00;101866.13;1262926;23;20259;-92
2023/10/07 01:02:50;;;;;;;11.90;6.78;;;;;;;14.32;100.00;101864.47;1272883;23;20334;-90
2023/10/07 01:04:02;;;;;;;13.10;5.90;;;;;;;14.30;100.00;101878.09;1260970;23;20611;-90
2023/10/07 01:04:40;;;;;;;18.67;7.60;;;;;;;14.29;100.00;101879.13;1255360;23;20267;-91
2023/10/07 01:05:33;;;;;;;16.85;7.57;;;;;;;14.31;100.00;101879.75;1263864;23;20269;-91
2023/10/07 01:06:10;;;;;;;11.93;5.63;;;;;;;14.37;100.00;101888.78;1257401;23;20704;-91
2023/10/07 01:06:45;;;;;;;7.68;5.50;;;;;;;14.37;100.00;101875.38;1262443;23;20324;-91
2023/10/07 01:07:20;;;;;;;12.38;5.57;;;;;;;14.38;100.00;101880.53;1257055;23;20278;-92
2023/10/07 01:07:55;;;;;;;13.80;6.22;;;;;;;14.34;100.00;101889.22;1253417;23;20263;-91
2023/10/07 01:08:34;;;;;;;9.60;5.18;;;;;;;14.34;100.00;101883.84;1253507;23;20271;-92
2023/10/07 01:09:14;;;;;;;14.77;6.60;;;;;;;14.37;100.00;101889.59;1260866;23;20297;-90
2023/10/07 01:10:01;;;;;;;;;;;;;;;14.34;100.00;101884.66;1255031;23;20390;-91
2023/10/07 01:10:37;;;;;;;10.88;5.30;;;;;;;14.36;100.00;101877.22;1253657;23;20343;-90
2023/10/07 01:11:45;;;;;;;13.18;5.60;;;;;;;14.32;100.00;101892.09;1254057;23;20789;-92
2023/10/07 01:12:18;;;;;;;12.45;6.65;;;;;;;14.34;100.00;101894.56;1254771;23;20278;-91
2023/10/07 01:12:51;;;;;;;7.30;5.63;;;;;;;14.32;100.00;101889.44;1251401;23;20261;-91
2023/10/07 01:13:29;;;;;;;16.00;5.70;;;;;;;14.33;100.00;101885.72;1256895;23;20732;-91
2023/10/07 01:14:05;;;;;;;11.35;5.25;;;;;;;14.33;100.00;101888.41;1259555;23;20720;-92
2023/10/07 01:14:46;;;;;;;11.48;5.95;;;;;;;14.34;100.00;101882.00;1260156;23;20619;-91
2023/10/07 01:15:23;;;;;;;13.95;6.40;;;;;;;14.31;100.00;101887.78;1255738;23;20270;-91
2023/10/07 01:15:55;;;;;;;15.15;5.95;;;;;;;14.33;100.00;101888.41;1260724;23;20337;-92
2023/10/07 01:16:50;;;;;;;8.52;5.72;;;;;;;14.34;100.00;101890.03;1256315;23;20263;-92
2023/10/07 01:17:30;;;;;;;13.65;4.93;;;;;;;14.33;100.00;101885.72;1254996;23;20278;-91
2023/10/07 01:18:06;;;;;;;11.27;5.85;;;;;;;14.32;100.00;101881.38;1254499;23;20767;-91
2023/10/07 01:18:39;;;;;;;10.98;5.85;;;;;;;14.32;100.00;101884.06;1250067;23;20376;-92
2023/10/07 01:19:54;;;;;;;13.48;6.15;;;;;;;14.34;100.00;101884.66;1249037;23;20268;-91
2023/10/07 01:21:11;;;;;;;9.10;6.10;;;;;;;14.29;100.00;101876.47;1248947;23;20343;-91
2023/10/07 01:21:31;;;;;;;13.40;5.78;;;;;;;14.31;100.00;101882.44;1243167;23;20288;-90
2023/10/07 01:22:09;;;;;;;9.05;5.38;;;;;;;14.29;100.00;101881.81;1266633;23;20254;-91
2023/10/07 01:23:01;;;;;;;9.48;5.40;;;;;;;14.24;100.00;101881.63;1261623;23;20326;-91
2023/10/07 01:23:33;;;;;;;18.90;6.15;;;;;;;14.24;100.00;101878.94;1258217;23;20266;-91
2023/10/07 01:24:06;;;;;;;12.07;6.05;;;;;;;14.29;100.00;101884.50;1255391;23;20019;-92
2023/10/07 01:25:17;;;;;;;13.18;5.82;;;;;;;14.32;100.00;101870.66;1262766;23;20270;-89
2023/10/07 01:25:53;;;;;;;14.77;5.53;;;;;;;14.30;100.00;101883.47;1249914;23;20275;-92
2023/10/07 01:26:30;;;;;;;13.27;5.78;;;;;;;14.25;100.00;101875.25;1248741;23;20688;-90
2023/10/07 01:27:06;;;;;;;17.25;6.15;;;;;;;14.28;100.00;101879.34;1255280;23;20298;-91
2023/10/07 01:27:50;;;;;;;8.30;5.85;;;;;;;14.28;100.00;101874.00;1248683;23;20268;-91
2023/10/07 01:28:22;;;;;;;6.88;4.90;;;;;;;14.22;100.00;101875.66;1253503;23;20267;-91
2023/10/07 01:29:02;;;;;;;13.73;5.63;;;;;;;14.21;100.00;101868.66;1261578;23;20254;-91
2023/10/07 01:29:35;;;;;;;14.98;6.00;;;;;;;14.21;100.00;101879.38;1257246;23;20326;-91
2023/10/07 01:30:15;;;;;;;15.18;6.40;;;;;;;14.24;100.00;101878.94;1255132;23;20282;-92
2023/10/07 01:31:07;;;;;;;10.98;5.82;;;;;;;14.29;100.00;101876.47;1256243;23;20021;-91
2023/10/07 01:31:48;;;;;;;18.42;6.68;;;;;;;14.27;100.00;101883.06;1249433;23;20015;-92
2023/10/07 01:32:20;;;;;;;12.50;6.47;;;;;;;14.24;100.00;101873.59;1255505;23;20271;-91
2023/10/07 01:33:02;;;;;;;22.02;6.50;;;;;;;14.22;100.00;101884.50;1261251;23;20046;-92
2023/10/07 01:33:47;;;;;;;8.48;5.43;;;;;;;14.22;100.00;101883.69;1261083;23;20018;-91
2023/10/07 01:34:19;;;;;;;7.85;5.50;;;;;;;14.23;100.00;101883.47;1243650;23;20276;-91
2023/10/07 01:34:52;;;;;;;12.23;6.43;;;;;;;14.23;100.00;101885.34;1243178;23;20722;-91
2023/10/07 01:35:32;;;;;;;18.85;6.80;;;;;;;14.21;100.00;101884.72;1249074;23;20637;-91
2023/10/07 01:36:54;;;;;;;15.77;5.55;;;;;;;14.20;100.00;101878.56;1249655;23;20271;-89
2023/10/07 01:37:32;;;;;;;9.07;6.50;;;;;;;14.19;100.00;101876.91;1249855;23;20272;-90
2023/10/07 01:38:07;;;;;;;9.73;6.20;;;;;;;14.21;100.00;101876.69;1261755;23;20270;-92
2023/10/07 01:38:51;;;;;;;13.63;6.63;;;;;;;14.22;100.00;101875.66;1249446;23;20846;-91
2023/10/07 01:39:23;;;;;;;17.92;5.70;;;;;;;14.24;100.00;101878.94;1250970;23;20348;-91
2023/10/07 01:39:55;;;;;;;15.98;6.43;;;;;;;14.22;100.00;101881.00;1255363;23;20589;-91
2023/10/07 01:40:45;;;;;;;8.82;6.28;;;;;;;14.20;100.00;101888.44;1254293;23;20290;-92
2023/10/07 01:41:27;;;;;;;11.73;7.28;;;;;;;14.20;100.00;101880.41;1257143;23;20018;-91
2023/10/07 01:42:02;;;;;;;11.82;6.18;;;;;;;14.19;100.00;101881.44;1250324;23;20397;-90
2023/10/07 01:42:43;;;;;;;11.70;6.05;;;;;;;14.26;100.00;101884.94;1257888;23;20266;-91
2023/10/07 01:43:15;;;;;;;24.67;6.00;;;;;;;14.17;100.00;101881.66;1267165;23;20277;-91
2023/10/07 01:44:04;;;;;;;12.00;5.95;;;;;;;14.17;100.00;101876.31;1261545;23;20264;-91
2023/10/07 01:44:39;;;;;;;9.95;5.95;;;;;;;14.21;100.00;101890.09;1268347;23;20567;-91
2023/10/07 01:45:22;;;;;;;9.75;5.75;;;;;;;14.21;100.00;101874.84;1249065;23;20299;-91
2023/10/07 01:45:55;;;;;;;11.50;6.38;;;;;;;14.25;100.00;101883.28;1256621;23;20315;-92
2023/10/07 01:46:27;;;;;;;15.85;7.20;;;;;;;14.30;100.00;101886.16;1256197;23;20282;-92
2023/10/07 01:46:59;;;;;;;17.83;8.05;;;;;;;14.23;100.00;101885.34;1247504;23;20282;-91
2023/10/07 01:47:34;;;;;;;15.00;6.72;;;;;;;14.18;100.00;101887.84;1257358;23;20287;-92
2023/10/07 01:48:10;;;;;;;16.08;6.50;;;;;;;14.23;100.00;101893.38;1267076;23;20270;-91
2023/10/07 01:48:53;;;;;;;12.55;6.47;;;;;;;14.24;100.00;101889.66;1260857;23;20266;-91
2023/10/07 01:49:30;;;;;;;10.57;5.30;;;;;;;14.25;100.00;101887.84;1249261;23;20366;-91
2023/10/07 01:50:11;;;;;;;11.75;5.55;;;;;;;14.25;100.00;101885.97;1251135;23;20258;-91
2023/10/07 01:50:45;;;;;;;11.48;5.45;;;;;;;14.24;100.00;101878.94;1260548;23;20398;-91
2023/10/07 01:51:17;;;;;;;9.60;6.32;;;;;;;14.24;100.00;101889.66;1265282;23;20261;-91
2023/10/07 01:51:52;;;;;;;13.23;7.45;;;;;;;14.22;100.00;101878.34;1266000;23;20282;-90
2023/10/07 01:52:27;;;;;;;12.90;6.75;;;;;;;14.26;100.00;101879.56;1264224;23;20250;-91
2023/10/07 01:52:59;;;;;;;27.48;8.90;;;;;;;14.29;100.00;101883.69;1245011;23;20316;-91
2023/10/07 01:53:34;;;;;;;16.25;8.32;;;;;;;14.31;100.00;101885.09;1248403;23;20642;-91
2023/10/07 01:54:08;;;;;;;14.30;7.13;;;;;;;14.33;100.00;101875.00;1256911;23;20259;-92
2023/10/07 01:54:42;;;;;;;11.32;6.68;;;;;;;14.30;100.00;101879.97;1254061;23;20267;-92
2023/10/07 01:55:16;;;;;;;13.07;6.28;;;;;;;14.29;100.00;101876.47;1255123;23;20267;-91
2023/10/07 01:55:48;;;;;;;8.77;6.07;;;;;;;14.29;100.00;101881.00;1255140;23;20267;-91
2023/10/07 01:56:20;;;;;;;15.00;7.05;;;;;;;14.29;100.00;101876.47;1254343;23;20472;-92
2023/10/07 01:56:52;;;;;;;12.38;7.10;;;;;;;14.28;100.00;101882.88;1253633;23;20294;-91
2023/10/07 01:57:23;;;;;;;13.13;7.35;;;;;;;14.31;100.00;101882.44;1260073;23;20389;-92
2023/10/07 01:57:56;;;;;;;10.45;6.95;;;;;;;14.31;100.00;101869.03;1254673;23;20767;-91
2023/10/07 01:58:29;;;;;;;21.05;8.15;;;;;;;14.27;100.00;101883.06;1248934;23;20784;-91
2023/10/07 01:59:46;;;;;;;7.60;5.88;;;;;;;14.33;100.00;101871.50;1247643;23;20275;-91
2023/10/07 02:01:09;;;;;;;12.48;6.70;;;;;;;14.27;100.00;101878.53;1248840;23;20291;-90
2023/10/07 02:01:43;;;;;;;14.20;6.78;;;;;;;14.29;100.00;101875.63;1248888;23;20019;-91
2023/10/07 02:02:15;;;;;;;14.65;7.05;;;;;;;14.30;100.00;101863.88;1248034;23;20030;-91
2023/10/07 02:02:50;;;;;;;10.63;6.43;;;;;;;14.28;100.00;101874.81;1255644;23;20323;-91
2023/10/07 02:03:24;;;;;;;15.35;6.45;;;;;;;14.25;100.00;101869.88;1250018;23;20581;-91
2023/10/07 02:03:57;;;;;;;13.05;6.03;;;;;;;14.19;100.00;101865.38;1260947;23;20278;-91
2023/10/07 02:04:30;;;;;;;15.63;6.75;;;;;;;14.28;100.00;101860.59;1249475;23;20141;-92
2023/10/07 02:05:11;;;;;;;12.23;7.43;;;;;;;14.28;100.00;101869.47;1259799;23;20352;-90
2023/10/07 02:05:47;;;;;;;15.43;7.85;;;;;;;14.29;100.00;101856.88;1263561;23;20031;-91
2023/10/07 02:06:18;;;;;;;15.55;7.07;;;;;;;14.23;100.00;101859.34;1258630;23;20266;-91
2023/10/07 02:06:54;;;;;;;16.20;6.82;;;;;;;14.27;100.00;101857.09;1253767;23;20023;-91
2023/10/07 02:07:29;;;;;;;12.60;5.65;;;;;;;14.29;100.00;101860.38;1248305;23;20272;-90
2023/10/07 02:08:02;;;;;;;14.05;7.30;;;;;;;14.31;100.00;101854.81;1256845;23;20313;-91
2023/10/07 02:08:37;;;;;;;15.32;7.07;;;;;;;14.31;100.00;101868.19;1251826;23;20282;-91
2023/10/07 02:09:09;;;;;;;10.30;6.53;;;;;;;14.28;100.00;101861.41;1250689;23;20279;-90
2023/10/07 02:09:42;;;;;;;11.60;6.80;;;;;;;14.31;100.00;101866.34;1249042;23;20295;-91
2023/10/07 02:10:23;;;;;;;14.00;6.50;;;;;;;14.28;100.00;101858.75;1252094;23;20140;-92
2023/10/07 02:10:59;;;;;;;13.27;6.75;;;;;;;14.28;100.00;101871.31;1255069;23;20018;-90
2023/10/07 02:11:31;;;;;;;12.60;7.03;;;;;;;14.31;100.00;101868.19;1254547;23;20364;-90
2023/10/07 02:12:09;;;;;;;8.23;6.30;;;;;;;14.28;100.00;101871.31;1246558;23;20275;-91
2023/10/07 02:12:45;;;;;;;16.63;6.85;;;;;;;14.20;100.00;101873.19;1249594;23;20011;-91
2023/10/07 02:13:19;;;;;;;18.15;6.68;;;;;;;14.22;100.00;101871.13;1255157;23;20274;-91
2023/10/07 02:13:52;;;;;;;15.80;6.38;;;;;;;14.23;100.00;101871.94;1260441;23;20266;-91
2023/10/07 02:14:25;;;;;;;17.95;7.20;;;;;;;14.21;100.00;101869.47;1255367;23;20267;-91
2023/10/07 02:14:57;;;;;;;20.27;8.25;;;;;;;14.24;100.00;101862.88;1260657;23;20442;-91
2023/10/07 02:15:36;;;;;;;14.18;6.25;;;;;;;14.27;100.00;101862.47;1256984;23;20255;-91
2023/10/07 02:16:08;;;;;;;15.35;7.95;;;;;;;14.22;100.00;101864.94;1256763;23;20812;-90
2023/10/07 02:16:40;;;;;;;19.38;6.63;;;;;;;14.22;100.00;101864.94;1259322;23;20691;-91
2023/10/07 02:17:12;;;;;;;15.10;6.05;;;;;;;14.20;100.00;101867.00;1257581;23;20297;-91
2023/10/07 02:17:47;;;;;;;13.27;7.57;;;;;;;14.22;100.00;101862.25;1260763;23;20273;-91
2023/10/07 02:18:19;;;;;;;13.95;6.43;;;;;;;14.28;100.00;101861.41;1261773;23;20599;-91
2023/10/07 02:18:51;;;;;;;12.10;6.78;;;;;;;14.26;100.00;101860.81;1255403;23;20278;-92
2023/10/07 02:19:29;;;;;;;9.10;7.05;;;;;;;14.21;100.00;101863.28;1255068;23;20274;-90
2023/10/07 02:20:22;;;;;;;16.30;8.98;;;;;;;14.16;100.00;101861.25;1254586;23;20131;-92
2023/10/07 02:21:05;;;;;;;11.57;6.57;;;;;;;14.22;100.00;101862.25;1256351;23;20335;-90
2023/10/07 02:21:37;;;;;;;12.63;6.50;;;;;;;14.18;100.00;101863.72;1250550;23;20274;-91
2023/10/07 02:22:20;;;;;;;15.93;7.55;;;;;;;14.14;100.00;101865.19;1253088;23;20259;-91
2023/10/07 02:22:52;;;;;;;12.93;6.57;;;;;;;14.19;100.00;101862.69;1256571;23;20890;-90
2023/10/07 02:23:43;;;;;;;15.18;7.05;;;;;;;14.16;100.00;101855.09;1260254;23;20259;-91
2023/10/07 02:24:15;;;;;;;15.02;8.15;;;;;;;14.19;100.00;101865.38;1250491;23;20379;-91
2023/10/07 02:24:53;;;;;;;11.90;7.30;;;;;;;14.22;100.00;101862.25;1251606;23;20019;-92
2023/10/07 02:25:29;;;;;;;16.00;8.40;;;;;;;14.22;100.00;101859.56;1260382;23;20266;-91
2023/10/07 02:26:05;;;;;;;19.80;7.32;;;;;;;14.21;100.00;101864.13;1263100;23;20258;-92
2023/10/07 02:26:43;;;;;;;11.95;7.88;;;;;;;14.28;100.00;101866.78;1267253;23;20255;-91
2023/10/07 02:27:25;;;;;;;11.20;7.60;;;;;;;14.21;100.00;101866.78;1267201;23;20343;-91
2023/10/07 02:27:57;;;;;;;16.73;6.90;;;;;;;14.22;100.00;101872.97;1254915;23;20014;-92
2023/10/07 02:28:33;;;;;;;14.50;7.03;;;;;;;14.24;100.00;101852.13;1254305;23;20273;-91
2023/10/07 02:29:07;;;;;;;19.92;8.27;;;;;;;14.26;100.00;101860.81;1255681;23;20677;-91
2023/10/07 02:29:40;;;;;;;20.98;7.55;;;;;;;14.25;100.00;101859.16;1254927;23;20251;-91
2023/10/07 02:30:19;;;;;;;12.95;7.30;;;;;;;14.26;100.00;101860.81;1255017;23;20266;-91
2023/10/07 02:31:00;;;;;;;16.25;8.20;;;;;;;14.30;100.00;101863.88;1265554;23;20323;-91
2023/10/07 02:31:43;;;;;;;13.85;8.45;;;;;;;14.29;100.00;101860.38;1247643;23;20275;-90
2023/10/07 02:32:17;;;;;;;20.13;7.45;;;;;;;14.29;100.00;101875.63;1242919;23;20028;-91
2023/10/07 02:32:49;;;;;;;11.25;7.25;;;;;;;14.28;100.00;101864.09;1243420;23;20398;-90
2023/10/07 02:33:21;;;;;;;14.93;7.90;;;;;;;14.33;100.00;101861.59;1241086;23;20268;-90
2023/10/07 02:33:52;;;;;;;19.48;8.02;;;;;;;14.30;100.00;101867.38;1244674;23;20267;-92
2023/10/07 02:34:33;;;;;;;17.58;8.13;;;;;;;14.32;100.00;101865.31;1244767;23;20263;-91
2023/10/07 02:35:09;;;;;;;15.60;8.07;;;;;;;14.32;100.00;101862.63;1252479;23;20394;-91
2023/10/07 02:35:46;;;;;;;11.55;7.43;;;;;;;14.33;100.00;101872.31;1256266;23;20490;-90
2023/10/07 02:36:28;;;;;;;22.05;7.78;;;;;;;14.33;100.00;101869.63;1253700;23;20322;-91
2023/10/07 02:37:13;;;;;;;12.95;7.40;;;;;;;14.34;100.00;101868.59;1253293;23;20822;-91
2023/10/07 02:37:49;;;;;;;18.85;9.68;;;;;;;14.32;100.00;101862.63;1255236;23;20258;-91
2023/10/07 02:38:35;;;;;;;15.77;9.43;;;;;;;14.33;100.00;101872.31;1253355;23;20274;-91
2023/10/07 02:39:26;;;;;;;16.27;8.90;;;;;;;14.29;100.00;101871.09;1253369;23;20414;-91
2023/10/07 02:40:18;;;;;;;14.13;8.45;;;;;;;14.38;100.00;101869.81;1253237;23;20294;-91
2023/10/07 02:40:50;;;;;;;14.70;7.70;;;;;;;14.35;100.00;101864.06;1251443;23;20256;-91
2023/10/07 02:41:24;;;;;;;12.48;7.65;;;;;;;14.34;100.00;101867.78;1247383;23;20106;-91
2023/10/07 02:41:56;;;;;;;16.83;8.98;;;;;;;14.30;100.00;101862.03;1247051;23;20354;-92
2023/10/07 02:42:28;;;;;;;19.63;8.48;;;;;;;14.35;100.00;101864.88;1247282;23;20306;-91
2023/10/07 02:43:07;;;;;;;14.13;8.73;;;;;;;14.34;100.00;101859.72;1253557;23;20282;-91
2023/10/07 02:43:43;;;;;;;18.30;8.68;;;;;;;14.35;100.00;101859.50;1261021;23;20078;-92
2023/10/07 02:44:25;;;;;;;16.92;9.05;;;;;;;14.31;100.00;101861.00;1260714;23;20346;-90
2023/10/07 02:45:19;;;;;;;20.73;7.57;;;;;;;14.31;100.00;101863.66;1258733;23;20815;-91
2023/10/07 02:45:51;;;;;;;17.80;8.30;;;;;;;14.29;100.00;101862.25;1265045;23;20751;-91
2023/10/07 02:46:31;;;;;;;15.73;8.98;;;;;;;14.35;100.00;101859.50;1258846;23;20262;-91
2023/10/07 02:47:11;;;;;;;18.70;10.02;;;;;;;14.34;100.00;101857.88;1259731;23;20674;-91
2023/10/07 02:47:50;;;;;;;15.23;8.23;;;;;;;14.29;100.00;101857.69;1253360;23;20021;-91
2023/10/07 02:48:22;;;;;;;14.18;8.13;;;;;;;14.27;100.00;101859.78;1260469;23;20323;-89
2023/10/07 02:49:03;;;;;;;17.33;9.70;;;;;;;14.33;100.00;101858.09;1247583;23;20271;-90
2023/10/07 02:49:35;;;;;;;14.52;8.45;;;;;;;14.34;100.00;101860.56;1251059;23;20670;-92
2023/10/07 02:50:07;;;;;;;16.48;9.25;;;;;;;14.37;100.00;101860.13;1247128;23;20752;-92
2023/10/07 02:50:42;;;;;;;14.82;8.57;;;;;;;14.30;100.00;101856.66;1253193;23;20446;-92
2023/10/07 02:51:13;;;;;;;18.60;9.27;;;;;;;14.34;100.00;101863.22;1252544;23;20393;-90
2023/10/07 02:51:46;;;;;;;15.98;10.13;;;;;;;14.34;100.00;101863.22;1246758;23;20274;-91
2023/10/07 02:52:19;;;;;;;18.60;10.68;;;;;;;14.33;100.00;101861.59;1255652;23;20700;-92
2023/10/07 02:52:50;;;;;;;14.25;9.02;;;;;;;14.32;100.00;101857.25;1256640;23;20269;-92
2023/10/07 02:53:22;;;;;;;20.33;9.70;;;;;;;14.32;100.00;101862.63;1253798;23;20330;-91
2023/10/07 02:54:04;;;;;;;19.08;10.20;;;;;;;14.28;100.00;101858.75;1260100;23;20258;-92